Página principal
METAR-TAF:

METAR-TAF

Aeroportos :

Aeroporto Internacional de Don Mueang

Banguecoque, Tailândia

latitude: 13-54-45N, longitude: 100-36-24E, altura: 4 m

Observação actual do tempo

O boletim foi feito há 30 minutos, às 17:00 UTC
Vento 5 kt de sul
Temperatura 28°C
Humidade 79%
Pressão 1015 hPa
Visibilidade 10 km ou mais
Poucas nuvensa uma altura de 2500 ft

METAR: VTBD 201700Z 18005KT 9999 FEW025 28/24 Q1015 NOSIG

Hora: 00:30 (17:30 UTC)

Previsão

O boletim foi feito há 6 horas e 30 minutos, às 11:00 UTC
Previsão válida de 20 às 12 UTC a 21 às 18 UTC
Vento 8 kt de su-sudoeste
Visibilidade 10 km ou mais
Poucas nuvensa uma altura de 3000 ft
Tornando-se
de 20 às 22 UTC a 20 às 24 UTC
Vento 5 kt de sudeste
Tornando-se
de 21 às 02 UTC a 21 às 04 UTC
Vento 8 kt de su-sudoeste

TAF: VTBD 201100Z 2012/2118 20008KT 9999 FEW030 BECMG 2022/2024 13005KT BECMG 2102/2104 20008KT

Observações e previsões do tempo de mais de 4000 aeroportos (mensagens METAR e TAF).

As estações disponíveis são os pontos amarelos e vermelhos sobre o mapa.

Mova o rato sobre o mapa para ver o nome da estação.

Depois clique no ponto para visualizar as observações e previsões meteorológicas.

Para alterar o mapa : clique nos botões verdes com uma cruz preta para aumentar o zoom; no botão verde com uma pitada de zoom; ou nas setas verdes para mapas adjacentes.


METAR-TAF: